Time;durP1;ratioP1;P1;durP2;ratioP2;P2;SDS_P1;SDS_P2;PMS_P1;PMS_P2;Temp;Humidity;BMP_temperature;BMP_pressure;BME280_temperature;BME280_humidity;BME280_pressure;Samples;Min_cycle;Max_cycle;Signal;HPM_P1;HPM_P2
2021/05/19 00:01:39;;;;;;;16.10;7.47;;;15.60;99.90;;;;;;5055264;28;20021;-77
2021/05/19 00:04:06;;;;;;;17.13;7.43;;;15.60;99.90;;;;;;5055562;28;20494;-77
2021/05/19 00:06:33;;;;;;;15.20;7.07;;;15.60;99.90;;;;;;5055422;28;20021;-77
2021/05/19 00:08:59;;;;;;;15.50;7.25;;;15.70;99.90;;;;;;5055208;28;20024;-76
2021/05/19 00:11:26;;;;;;;17.20;7.50;;;15.70;99.90;;;;;;5055126;28;20040;-78
2021/05/19 00:13:52;;;;;;;19.13;7.82;;;15.60;99.90;;;;;;5055842;28;20535;-74
2021/05/19 00:16:18;;;;;;;16.40;6.82;;;15.60;99.90;;;;;;5055277;28;20032;-78
2021/05/19 00:18:44;;;;;;;15.35;7.10;;;15.70;99.90;;;;;;5055047;28;20028;-76
2021/05/19 00:21:11;;;;;;;15.43;6.47;;;15.70;99.90;;;;;;5055370;28;20017;-77
2021/05/19 00:23:37;;;;;;;12.82;6.50;;;15.70;99.90;;;;;;5055080;28;20055;-77
2021/05/19 00:26:04;;;;;;;12.43;6.45;;;15.70;99.90;;;;;;5055183;28;20021;-77
2021/05/19 00:28:31;;;;;;;11.45;5.90;;;15.80;99.90;;;;;;5054760;28;20076;-78
2021/05/19 00:31:00;;;;;;;8.18;4.80;;;15.80;99.90;;;;;;5054598;28;20387;-75
2021/05/19 00:33:26;;;;;;;9.65;5.20;;;15.70;99.90;;;;;;5055271;28;20047;-74
2021/05/19 00:35:52;;;;;;;9.95;5.15;;;15.80;99.90;;;;;;5053502;28;20025;-79
2021/05/19 00:38:19;;;;;;;9.55;5.68;;;15.70;99.90;;;;;;5054867;28;20063;-78
2021/05/19 00:40:48;;;;;;;9.27;5.35;;;15.70;99.90;;;;;;5054967;28;20063;-77
2021/05/19 00:43:15;;;;;;;13.88;4.80;;;15.60;99.90;;;;;;5054831;28;20539;-77
2021/05/19 00:45:44;;;;;;;6.95;4.80;;;15.70;99.90;;;;;;5054556;28;20572;-76
2021/05/19 00:48:11;;;;;;;8.27;4.40;;;15.60;99.90;;;;;;5054828;28;20029;-77
2021/05/19 00:50:39;;;;;;;6.50;4.40;;;15.50;99.90;;;;;;5054386;28;20029;-78
2021/05/19 00:53:06;;;;;;;7.30;4.63;;;15.50;99.90;;;;;;5054669;28;20495;-75
2021/05/19 00:55:32;;;;;;;9.05;4.50;;;15.60;99.90;;;;;;5054420;28;20021;-76
2021/05/19 00:57:59;;;;;;;7.65;4.47;;;15.50;99.90;;;;;;5054957;28;20017;-75
2021/05/19 01:00:26;;;;;;;7.57;4.10;;;15.50;99.90;;;;;;5054439;28;20441;-75
2021/05/19 01:02:53;;;;;;;7.32;4.32;;;15.50;99.90;;;;;;5054135;28;20362;-77
2021/05/19 01:10:45;;;;;;;7.68;4.22;;;15.30;99.90;;;;;;5054203;28;20055;-76
2021/05/19 01:13:12;;;;;;;7.53;4.00;;;15.30;99.90;;;;;;5054181;28;20029;-77
2021/05/19 01:15:38;;;;;;;6.47;3.85;;;15.30;99.90;;;;;;5054211;28;20017;-76
2021/05/19 01:18:06;;;;;;;8.30;4.20;;;15.30;99.90;;;;;;5054224;28;20021;-77
2021/05/19 01:20:33;;;;;;;6.50;3.80;;;15.30;99.90;;;;;;5052692;28;20441;-78
2021/05/19 01:23:00;;;;;;;8.10;4.15;;;15.20;99.90;;;;;;5054269;28;20374;-77
2021/05/19 01:25:27;;;;;;;8.30;3.85;;;15.20;99.90;;;;;;5053856;28;20033;-77
2021/05/19 01:27:59;;;;;;;6.65;3.72;;;15.20;99.90;;;;;;5053529;28;20068;-78
2021/05/19 01:30:27;;;;;;;7.68;3.70;;;15.30;99.90;;;;;;5053977;28;20037;-77
2021/05/19 01:32:53;;;;;;;6.93;3.58;;;15.50;99.90;;;;;;5052438;28;20025;-76
2021/05/19 01:35:19;;;;;;;8.15;3.72;;;15.50;99.90;;;;;;5053900;28;20027;-75
2021/05/19 01:37:46;;;;;;;6.55;3.53;;;15.50;99.90;;;;;;5053997;28;20430;-76
2021/05/19 01:40:18;;;;;;;6.72;3.65;;;15.50;99.90;;;;;;5053705;28;20017;-78
2021/05/19 01:42:48;;;;;;;6.45;3.40;;;15.50;99.90;;;;;;5054185;28;20454;-74
2021/05/19 01:45:16;;;;;;;5.80;3.40;;;15.50;99.90;;;;;;5052335;28;20017;-76
2021/05/19 01:47:46;;;;;;;8.85;3.95;;;15.40;99.90;;;;;;5052338;28;20412;-79
2021/05/19 01:50:15;;;;;;;7.95;3.65;;;15.20;99.90;;;;;;5053682;28;20036;-74
2021/05/19 01:52:42;;;;;;;5.43;3.70;;;15.00;99.90;;;;;;5051967;28;20029;-76
2021/05/19 01:55:10;;;;;;;5.00;3.47;;;15.00;99.90;;;;;;5053493;28;20475;-75
2021/05/19 01:57:37;;;;;;;7.32;3.60;;;14.90;99.90;;;;;;5053549;28;20120;-76
2021/05/19 02:00:07;;;;;;;8.07;3.42;;;14.80;99.90;;;;;;5053526;28;20013;-77
2021/05/19 02:02:33;;;;;;;6.53;3.30;;;14.80;99.90;;;;;;5052215;28;20179;-76
2021/05/19 02:05:00;;;;;;;7.03;3.53;;;14.90;99.90;;;;;;5053327;28;20104;-75
2021/05/19 02:07:26;;;;;;;9.70;3.28;;;15.00;99.90;;;;;;5053984;28;20022;-77
2021/05/19 02:09:52;;;;;;;5.93;3.40;;;15.20;99.90;;;;;;5053150;28;20475;-76
2021/05/19 02:12:18;;;;;;;4.85;3.30;;;15.30;99.90;;;;;;5053673;28;20021;-76
2021/05/19 02:14:45;;;;;;;6.88;3.38;;;15.20;99.90;;;;;;5051889;28;20013;-78
2021/05/19 02:17:11;;;;;;;7.28;3.40;;;15.20;99.90;;;;;;5053435;28;20017;-78
2021/05/19 02:19:38;;;;;;;6.20;3.38;;;15.20;99.90;;;;;;5053305;28;20022;-74
2021/05/19 02:22:05;;;;;;;7.90;3.60;;;15.20;99.90;;;;;;5053631;28;20548;-76
2021/05/19 02:24:32;;;;;;;8.85;3.30;;;15.10;99.90;;;;;;5051868;28;20025;-78
2021/05/19 02:26:58;;;;;;;8.27;3.45;;;15.00;99.90;;;;;;5053387;28;20470;-77
2021/05/19 02:29:25;;;;;;;8.00;3.83;;;14.90;99.90;;;;;;5051730;28;20122;-79
2021/05/19 02:31:51;;;;;;;7.35;3.83;;;14.90;99.90;;;;;;5051897;28;20071;-78
2021/05/19 02:34:17;;;;;;;6.70;3.20;;;15.00;99.90;;;;;;5053492;28;20032;-74
2021/05/19 02:36:43;;;;;;;5.30;3.28;;;15.00;99.90;;;;;;5053324;28;20017;-78
2021/05/19 02:39:11;;;;;;;6.32;3.10;;;14.90;99.90;;;;;;5051947;28;20115;-77
2021/05/19 02:41:41;;;;;;;7.32;3.15;;;15.00;99.90;;;;;;5053027;28;20053;-78
2021/05/19 02:44:07;;;;;;;6.32;3.20;;;14.90;99.90;;;;;;5052986;28;20032;-75
2021/05/19 02:46:34;;;;;;;9.90;3.20;;;14.90;99.90;;;;;;5053207;28;20028;-78
2021/05/19 02:49:03;;;;;;;7.10;3.40;;;14.90;99.90;;;;;;5053086;28;20029;-79
2021/05/19 02:51:33;;;;;;;6.70;3.40;;;14.80;99.90;;;;;;5051637;28;20033;-78
2021/05/19 02:53:59;;;;;;;8.18;3.20;;;14.80;99.90;;;;;;5051681;28;20029;-75
2021/05/19 02:56:26;;;;;;;6.68;3.03;;;14.90;99.90;;;;;;5053260;28;20029;-76
2021/05/19 02:58:53;;;;;;;5.90;2.80;;;14.80;99.90;;;;;;5052949;28;20025;-77
2021/05/19 03:01:19;;;;;;;6.85;2.90;;;14.70;99.90;;;;;;5053324;28;20375;-78
2021/05/19 03:03:45;;;;;;;5.30;2.72;;;14.80;99.90;;;;;;5052749;28;20463;-74
2021/05/19 03:06:12;;;;;;;5.50;3.15;;;14.80;99.90;;;;;;5055116;28;20497;-78
2021/05/19 03:08:38;;;;;;;5.32;3.30;;;14.80;99.90;;;;;;5056442;28;20020;-78
2021/05/19 03:11:05;;;;;;;6.60;3.70;;;14.70;99.90;;;;;;5055238;28;20021;-76
2021/05/19 03:13:32;;;;;;;5.65;3.58;;;14.80;99.90;;;;;;5056746;28;20470;-76
2021/05/19 03:15:58;;;;;;;6.63;2.50;;;14.80;99.90;;;;;;5056259;28;20104;-79
2021/05/19 03:18:24;;;;;;;7.25;3.92;;;14.70;99.90;;;;;;5056278;28;20107;-76
2021/05/19 03:20:50;;;;;;;11.85;3.28;;;14.70;99.90;;;;;;5056230;28;20036;-78
2021/05/19 03:23:16;;;;;;;4.63;3.20;;;14.50;99.90;;;;;;5054894;28;20158;-76
2021/05/19 03:25:42;;;;;;;7.28;3.22;;;14.30;99.90;;;;;;5054936;28;20554;-76
2021/05/19 03:28:09;;;;;;;12.77;4.28;;;14.20;99.90;;;;;;5055936;28;20111;-78
2021/05/19 03:30:35;;;;;;;8.70;4.22;;;14.10;99.90;;;;;;5056448;28;20025;-78
2021/05/19 03:33:03;;;;;;;8.13;4.00;;;14.30;99.90;;;;;;5054777;28;20029;-75
2021/05/19 03:35:29;;;;;;;6.32;3.70;;;14.30;99.90;;;;;;5055927;28;20013;-75
2021/05/19 03:37:55;;;;;;;10.50;4.63;;;14.40;99.90;;;;;;5056119;28;20017;-79
2021/05/19 03:40:22;;;;;;;6.40;4.78;;;14.30;99.90;;;;;;5055757;28;20020;-78
2021/05/19 03:42:48;;;;;;;8.85;4.88;;;14.30;99.90;;;;;;5055911;28;20021;-77
2021/05/19 03:45:17;;;;;;;5.72;4.25;;;14.40;99.90;;;;;;5055818;28;20017;-75
2021/05/19 03:47:45;;;;;;;7.93;4.53;;;14.40;99.90;;;;;;5055619;28;20025;-75
2021/05/19 03:50:12;;;;;;;5.95;3.90;;;14.40;99.90;;;;;;5055534;28;20506;-76
2021/05/19 03:52:38;;;;;;;5.38;3.75;;;14.50;99.90;;;;;;5055503;28;20383;-81
2021/05/19 03:55:08;;;;;;;8.32;4.32;;;14.70;99.90;;;;;;5055756;28;20033;-76
2021/05/19 03:57:33;;;;;;;7.35;4.28;;;14.70;99.90;;;;;;5055891;28;20029;-75
2021/05/19 04:00:00;;;;;;;11.85;5.40;;;14.60;99.90;;;;;;5055614;28;20032;-79
2021/05/19 04:02:26;;;;;;;11.10;5.60;;;14.60;99.90;;;;;;5055775;28;20063;-79
2021/05/19 04:04:52;;;;;;;10.63;6.13;;;14.60;99.90;;;;;;5054532;28;20021;-83
2021/05/19 04:07:18;;;;;;;11.32;6.60;;;14.40;99.90;;;;;;5056239;28;20036;-85
2021/05/19 04:09:44;;;;;;;12.95;6.50;;;14.20;99.90;;;;;;5054785;28;20033;-76
2021/05/19 04:12:10;;;;;;;9.32;6.50;;;14.20;99.90;;;;;;5056643;28;20060;-77
2021/05/19 04:14:36;;;;;;;13.27;7.40;;;14.30;99.90;;;;;;5054550;28;20064;-75
2021/05/19 04:17:02;;;;;;;11.82;6.82;;;14.20;99.90;;;;;;5054172;28;20060;-77
2021/05/19 04:19:28;;;;;;;14.15;7.32;;;14.20;99.90;;;;;;5053894;28;20071;-80
2021/05/19 04:21:54;;;;;;;10.45;7.28;;;14.10;99.90;;;;;;5054058;28;20032;-76
2021/05/19 04:24:20;;;;;;;10.98;6.95;;;14.20;99.90;;;;;;5055599;28;20021;-85
2021/05/19 04:26:46;;;;;;;11.98;7.47;;;14.30;99.90;;;;;;5055579;28;20028;-79
2021/05/19 04:29:12;;;;;;;12.77;7.85;;;14.30;99.90;;;;;;5055169;28;20432;-84
2021/05/19 04:31:39;;;;;;;12.70;7.43;;;14.30;99.90;;;;;;5055741;28;20035;-83
2021/05/19 04:34:04;;;;;;;10.77;6.72;;;14.40;99.90;;;;;;5055333;28;20028;-83
2021/05/19 04:36:30;;;;;;;10.75;6.50;;;14.50;99.90;;;;;;5055487;28;20377;-77
2021/05/19 04:38:57;;;;;;;11.68;7.15;;;14.70;99.90;;;;;;5054261;28;20348;-75
2021/05/19 04:41:23;;;;;;;10.00;6.75;;;14.70;99.90;;;;;;5054386;28;20021;-74
2021/05/19 04:43:49;;;;;;;12.98;7.55;;;14.70;99.90;;;;;;5055225;28;20383;-84
2021/05/19 04:46:15;;;;;;;13.73;6.13;;;14.80;99.90;;;;;;5055101;28;20013;-83
2021/05/19 04:48:41;;;;;;;11.05;6.07;;;14.90;99.90;;;;;;5054082;28;20479;-84
2021/05/19 04:51:07;;;;;;;10.30;6.40;;;15.10;99.90;;;;;;5055802;28;20371;-75
2021/05/19 04:53:33;;;;;;;12.18;7.28;;;15.20;99.90;;;;;;5055343;28;20086;-75
2021/05/19 04:55:59;;;;;;;13.32;7.20;;;15.20;99.90;;;;;;5054761;28;20020;-84
2021/05/19 04:58:26;;;;;;;11.52;7.72;;;15.30;99.90;;;;;;5055701;28;20025;-76
2021/05/19 05:00:53;;;;;;;16.27;8.02;;;15.40;99.90;;;;;;5055082;28;20025;-75
2021/05/19 05:03:20;;;;;;;17.05;6.88;;;15.40;99.90;;;;;;5055494;28;20025;-84
2021/05/19 05:05:46;;;;;;;25.73;11.43;;;15.40;99.90;;;;;;5054769;28;20025;-75
2021/05/19 05:08:13;;;;;;;13.05;7.70;;;15.20;99.90;;;;;;5053923;28;20055;-83
2021/05/19 05:10:39;;;;;;;13.02;6.78;;;14.90;99.90;;;;;;5054584;28;20025;-83
2021/05/19 05:13:05;;;;;;;10.27;6.82;;;14.70;99.90;;;;;;5055265;28;20075;-82
2021/05/19 05:15:31;;;;;;;14.60;6.88;;;14.80;99.90;;;;;;5054801;28;20017;-81
2021/05/19 05:17:57;;;;;;;10.45;6.93;;;14.70;99.90;;;;;;5054641;28;20071;-76
2021/05/19 05:20:24;;;;;;;13.27;8.15;;;14.80;99.90;;;;;;5054818;28;20475;-83
2021/05/19 05:22:50;;;;;;;11.55;6.72;;;14.70;99.90;;;;;;5054494;28;20044;-83
2021/05/19 05:25:18;;;;;;;10.38;6.22;;;14.60;99.90;;;;;;5053299;28;20418;-78
2021/05/19 05:27:47;;;;;;;12.05;6.97;;;14.50;99.90;;;;;;5053693;28;20063;-84
2021/05/19 05:30:14;;;;;;;13.07;6.70;;;14.50;99.90;;;;;;5054670;28;20037;-85
2021/05/19 05:32:40;;;;;;;9.95;6.50;;;14.60;99.90;;;;;;5054976;28;20059;-81
2021/05/19 05:35:07;;;;;;;10.20;7.20;;;14.60;99.90;;;;;;5053911;28;20400;-80
2021/05/19 05:37:33;;;;;;;12.35;6.28;;;14.70;99.90;;;;;;5053652;28;20020;-79
2021/05/19 05:39:59;;;;;;;14.13;7.63;;;14.70;99.90;;;;;;5053847;28;20158;-76
2021/05/19 05:42:26;;;;;;;14.73;7.90;;;14.80;99.90;;;;;;5053626;28;20017;-75
2021/05/19 05:44:52;;;;;;;14.40;6.43;;;14.70;99.90;;;;;;5053801;28;20113;-77
2021/05/19 05:47:18;;;;;;;10.65;6.20;;;14.70;99.90;;;;;;5053754;28;20367;-77
2021/05/19 05:49:44;;;;;;;11.18;6.55;;;14.70;99.90;;;;;;5052874;28;20487;-78
2021/05/19 05:52:10;;;;;;;12.00;6.90;;;14.70;99.90;;;;;;5052330;28;20383;-77
2021/05/19 05:54:36;;;;;;;8.98;6.50;;;14.70;99.90;;;;;;5053764;28;20055;-75
2021/05/19 05:57:03;;;;;;;10.57;6.10;;;14.60;99.90;;;;;;5053862;28;20021;-75
2021/05/19 05:59:29;;;;;;;9.98;6.30;;;14.50;99.90;;;;;;5053366;28;20387;-77
2021/05/19 06:01:55;;;;;;;10.52;6.78;;;14.50;99.90;;;;;;5052252;28;20120;-75
2021/05/19 06:04:21;;;;;;;10.00;6.70;;;14.30;99.90;;;;;;5053341;28;20487;-77
2021/05/19 06:06:47;;;;;;;8.40;5.93;;;14.30;99.90;;;;;;5053488;28;20021;-75
2021/05/19 06:09:13;;;;;;;10.77;6.72;;;14.50;99.90;;;;;;5052187;28;20083;-74
2021/05/19 06:11:39;;;;;;;9.68;6.70;;;14.50;99.90;;;;;;5053071;28;20104;-74
2021/05/19 06:14:05;;;;;;;11.82;7.10;;;14.30;99.90;;;;;;5052897;28;20021;-75
2021/05/19 06:16:31;;;;;;;14.73;7.30;;;14.30;99.90;;;;;;5053245;28;20125;-74
2021/05/19 06:18:57;;;;;;;9.68;7.53;;;14.20;99.90;;;;;;5052905;28;20075;-74
2021/05/19 06:21:23;;;;;;;13.18;10.50;;;14.30;99.90;;;;;;5052901;28;20027;-75
2021/05/19 06:23:49;;;;;;;11.63;9.32;;;14.30;99.90;;;;;;5052327;28;20434;-74
2021/05/19 06:26:15;;;;;;;9.70;7.55;;;14.50;99.90;;;;;;5052116;28;20104;-77
2021/05/19 06:28:41;;;;;;;12.30;6.70;;;14.60;99.90;;;;;;5052625;28;20048;-77
2021/05/19 06:31:07;;;;;;;10.57;6.70;;;14.60;99.90;;;;;;5052749;28;20390;-77
2021/05/19 06:33:33;;;;;;;8.60;6.10;;;14.50;99.90;;;;;;5053247;28;20029;-77
2021/05/19 06:35:59;;;;;;;9.68;6.15;;;14.70;99.90;;;;;;5051676;28;20045;-77
2021/05/19 06:38:25;;;;;;;8.48;7.07;;;14.80;99.90;;;;;;5052357;28;20556;-74
2021/05/19 06:40:52;;;;;;;11.98;7.25;;;14.90;99.90;;;;;;5054930;28;20024;-74
2021/05/19 06:43:18;;;;;;;9.38;6.22;;;15.00;99.90;;;;;;5056568;28;20021;-74
2021/05/19 06:45:44;;;;;;;9.52;6.25;;;15.10;99.90;;;;;;5056684;28;20025;-74
2021/05/19 06:48:10;;;;;;;10.02;7.00;;;15.00;99.90;;;;;;5055416;28;20526;-74
2021/05/19 06:50:36;;;;;;;11.13;6.65;;;14.90;99.90;;;;;;5056505;28;20033;-74
2021/05/19 06:53:02;;;;;;;9.13;6.28;;;14.90;99.90;;;;;;5056653;28;20028;-76
2021/05/19 06:55:28;;;;;;;12.23;7.55;;;15.00;99.90;;;;;;5057289;28;20108;-79
2021/05/19 06:57:54;;;;;;;8.52;6.13;;;15.00;99.90;;;;;;5056528;28;20068;-74
2021/05/19 07:00:21;;;;;;;10.30;7.63;;;15.00;99.90;;;;;;5056498;28;20009;-78
2021/05/19 07:02:47;;;;;;;11.85;7.63;;;14.90;99.90;;;;;;5056531;28;20112;-74
2021/05/19 07:05:13;;;;;;;11.77;7.47;;;15.00;99.90;;;;;;5057322;28;20032;-74
2021/05/19 07:07:39;;;;;;;11.35;7.53;;;15.10;99.90;;;;;;5076174;28;20054;-73
2021/05/19 07:10:07;;;;;;;11.82;6.88;;;15.30;99.90;;;;;;5074530;28;20033;-73
2021/05/19 07:12:33;;;;;;;9.32;6.60;;;15.50;99.90;;;;;;5075874;28;20025;-76
2021/05/19 07:15:02;;;;;;;10.18;6.80;;;15.50;99.90;;;;;;5075009;28;20024;-73
2021/05/19 07:17:28;;;;;;;12.43;6.35;;;15.50;99.90;;;;;;5073501;28;20024;-71
2021/05/19 07:19:54;;;;;;;7.80;6.00;;;15.60;99.90;;;;;;5065017;28;20485;-74
2021/05/19 07:22:20;;;;;;;8.25;6.70;;;15.70;99.90;;;;;;5064281;28;20024;-73
2021/05/19 07:24:48;;;;;;;9.05;6.80;;;15.70;99.90;;;;;;5064224;28;20487;-72
2021/05/19 07:27:14;;;;;;;8.85;6.13;;;15.70;99.90;;;;;;5062543;28;20024;-73
2021/05/19 07:29:41;;;;;;;10.82;6.10;;;15.80;99.90;;;;;;5064187;28;20048;-75
2021/05/19 07:32:07;;;;;;;7.88;5.57;;;15.80;99.90;;;;;;5065858;28;20103;-72
2021/05/19 07:34:35;;;;;;;7.53;5.70;;;15.80;99.90;;;;;;5063772;28;20100;-72
2021/05/19 07:37:01;;;;;;;7.05;5.65;;;15.90;99.90;;;;;;5066483;28;20021;-72
2021/05/19 07:39:26;;;;;;;7.82;5.38;;;16.00;99.90;;;;;;5063243;28;20032;-72
2021/05/19 07:41:52;;;;;;;9.55;5.72;;;16.20;99.90;;;;;;5062090;28;20028;-72
2021/05/19 07:44:18;;;;;;;8.18;5.45;;;16.30;99.90;;;;;;5065204;28;20013;-72
2021/05/19 07:46:44;;;;;;;8.32;4.90;;;16.20;99.90;;;;;;5064011;28;20465;-74
2021/05/19 07:49:12;;;;;;;6.97;5.10;;;16.20;99.90;;;;;;5064479;28;20123;-74
2021/05/19 07:51:38;;;;;;;7.00;4.57;;;16.20;99.90;;;;;;5071756;28;20036;-72
2021/05/19 07:54:05;;;;;;;5.05;3.90;;;16.30;99.90;;;;;;5075565;28;20027;-75
2021/05/19 07:56:50;;;;;;;5.65;4.15;;;16.30;99.90;;;;;;5075427;28;20028;-72
2021/05/19 07:59:18;;;;;;;5.82;3.88;;;16.30;99.90;;;;;;5075682;28;20028;-74
2021/05/19 08:02:01;;;;;;;5.63;4.13;;;16.40;99.90;;;;;;5075427;28;20154;-75
2021/05/19 08:04:28;;;;;;;7.47;4.38;;;16.40;99.90;;;;;;5075643;28;20036;-74
2021/05/19 08:06:54;;;;;;;5.55;3.95;;;16.50;99.90;;;;;;5074952;28;20096;-73
2021/05/19 08:09:20;;;;;;;6.32;4.60;;;16.60;99.90;;;;;;5073643;28;20115;-76
2021/05/19 08:11:47;;;;;;;7.85;5.22;;;16.70;99.90;;;;;;5069077;28;20439;-72
2021/05/19 08:14:14;;;;;;;7.18;5.07;;;16.90;99.90;;;;;;5065251;28;20032;-73
2021/05/19 08:16:41;;;;;;;7.38;4.40;;;17.00;99.90;;;;;;5064349;28;20021;-76
2021/05/19 08:19:07;;;;;;;5.45;3.65;;;17.10;99.90;;;;;;5065998;28;20032;-73
2021/05/19 08:21:34;;;;;;;6.45;3.60;;;17.30;99.90;;;;;;5063074;28;20062;-74
2021/05/19 08:24:00;;;;;;;5.28;3.67;;;17.50;99.90;;;;;;5062462;28;20489;-72
2021/05/19 08:26:26;;;;;;;4.93;3.70;;;17.60;99.90;;;;;;5065108;28;20017;-74
2021/05/19 08:28:53;;;;;;;6.65;3.08;;;17.60;99.90;;;;;;5062583;28;20129;-74
2021/05/19 08:31:19;;;;;;;4.45;2.90;;;17.60;99.90;;;;;;5063899;28;20496;-74
2021/05/19 08:33:47;;;;;;;5.60;2.60;;;17.60;99.90;;;;;;5064839;28;20415;-73
2021/05/19 08:36:14;;;;;;;3.80;2.90;;;17.60;99.90;;;;;;5064840;28;20020;-73
2021/05/19 08:38:40;;;;;;;5.90;3.40;;;17.60;99.90;;;;;;5067409;28;20111;-75
2021/05/19 08:41:06;;;;;;;5.85;3.40;;;17.60;99.90;;;;;;5075124;28;20024;-71
2021/05/19 08:43:33;;;;;;;6.15;3.60;;;17.70;99.90;;;;;;5065311;28;20031;-75
2021/05/19 08:45:59;;;;;;;5.30;3.30;;;17.80;99.90;;;;;;5054643;28;20063;-74
2021/05/19 08:48:25;;;;;;;5.88;3.90;;;17.60;99.90;;;;;;5055052;28;20517;-73
2021/05/19 08:50:52;;;;;;;4.97;3.65;;;17.50;99.90;;;;;;5054480;28;20056;-80
2021/05/19 08:53:18;;;;;;;4.88;3.63;;;17.50;99.90;;;;;;5054704;28;20025;-73
2021/05/19 08:55:44;;;;;;;4.88;3.72;;;17.30;99.90;;;;;;5054325;28;20021;-76
2021/05/19 08:58:10;;;;;;;5.15;3.35;;;17.20;99.90;;;;;;5054394;28;20080;-77
2021/05/19 09:00:36;;;;;;;6.45;3.88;;;17.00;99.90;;;;;;5054047;28;20021;-76
2021/05/19 09:03:06;;;;;;;6.05;3.63;;;17.00;99.90;;;;;;5054326;28;20483;-77
2021/05/19 09:05:34;;;;;;;11.82;5.20;;;16.90;99.90;;;;;;5053884;28;20067;-74
2021/05/19 09:08:17;;;;;;;9.52;5.05;;;16.90;99.90;;;;;;5063049;28;20565;-72
2021/05/19 09:10:55;;;;;;;7.78;5.00;;;16.80;99.90;;;;;;5063760;28;20055;-72
2021/05/19 09:13:37;;;;;;;7.03;5.07;;;16.80;99.90;;;;;;5054274;28;20402;-74
2021/05/19 09:16:04;;;;;;;8.48;6.22;;;16.70;99.90;;;;;;5054236;28;20032;-76
2021/05/19 09:18:57;;;;;;;7.18;6.05;;;16.70;99.90;;;;;;5053800;28;20028;-75
2021/05/19 09:21:33;;;;;;;6.75;5.50;;;16.70;99.90;;;;;;5053843;28;20056;-73
2021/05/19 09:24:03;;;;;;;6.10;5.10;;;16.70;99.90;;;;;;5053810;28;20021;-73
2021/05/19 09:26:29;;;;;;;6.57;5.05;;;16.80;99.90;;;;;;5053831;28;20025;-77
2021/05/19 09:29:19;;;;;;;7.65;5.15;;;16.80;99.90;;;;;;5052171;28;20135;-73
2021/05/19 09:31:52;;;;;;;8.90;6.10;;;16.80;99.90;;;;;;5053832;28;20059;-74
2021/05/19 09:34:27;;;;;;;8.95;6.13;;;16.90;99.90;;;;;;5052174;28;20502;-72
2021/05/19 09:36:53;;;;;;;9.77;6.00;;;16.90;99.90;;;;;;5054002;28;20482;-75
2021/05/19 09:39:20;;;;;;;9.00;5.47;;;16.90;99.90;;;;;;5053480;28;20411;-77
2021/05/19 09:41:46;;;;;;;16.17;5.50;;;17.10;99.90;;;;;;5053720;28;20033;-76
2021/05/19 09:44:13;;;;;;;9.82;6.97;;;17.00;99.90;;;;;;5052098;28;20017;-77
2021/05/19 09:46:47;;;;;;;8.70;5.72;;;16.80;99.90;;;;;;5053290;28;20029;-72
2021/05/19 09:49:23;;;;;;;10.40;5.72;;;16.90;99.90;;;;;;5053193;28;20033;-77
2021/05/19 09:51:54;;;;;;;8.40;5.53;;;17.00;99.90;;;;;;5051935;28;20114;-74
2021/05/19 09:54:44;;;;;;;8.00;5.00;;;17.10;99.90;;;;;;5053623;28;20028;-76
2021/05/19 09:57:12;;;;;;;8.65;5.45;;;17.10;99.90;;;;;;5053881;28;20071;-73
2021/05/19 09:59:45;;;;;;;8.15;5.40;;;16.90;99.90;;;;;;5053282;28;20360;-79
2021/05/19 10:02:12;;;;;;;8.57;5.80;;;17.00;99.90;;;;;;5053517;28;20021;-77
2021/05/19 10:04:49;;;;;;;7.05;5.72;;;17.10;99.90;;;;;;5053347;28;20466;-72
2021/05/19 10:07:19;;;;;;;8.65;5.53;;;17.30;99.90;;;;;;5053268;28;20025;-72
2021/05/19 10:09:45;;;;;;;11.27;5.60;;;17.50;99.90;;;;;;5053203;28;20067;-78
2021/05/19 10:12:14;;;;;;;8.43;6.15;;;17.70;99.90;;;;;;5051731;28;20052;-74
2021/05/19 10:14:41;;;;;;;8.63;5.60;;;17.80;99.90;;;;;;5054723;28;20028;-79
2021/05/19 10:17:10;;;;;;;6.70;5.22;;;18.10;99.90;;;;;;5057951;28;20028;-71
2021/05/19 10:19:43;;;;;;;6.35;4.50;;;18.00;99.90;;;;;;5077163;28;20016;-74
2021/05/19 10:22:11;;;;;;;5.30;4.18;;;17.60;99.90;;;;;;5077438;28;20024;-73
2021/05/19 10:24:59;;;;;;;5.15;4.22;;;17.60;99.90;;;;;;5077419;28;20055;-72
2021/05/19 10:27:26;;;;;;;6.25;4.40;;;17.80;99.90;;;;;;5067905;28;20029;-71
2021/05/19 10:29:57;;;;;;;6.10;4.53;;;17.90;99.90;;;;;;5074249;28;20036;-71
2021/05/19 10:32:23;;;;;;;5.88;4.53;;;18.00;99.90;;;;;;5076983;28;20055;-73
2021/05/19 10:34:50;;;;;;;6.45;4.40;;;17.80;99.90;;;;;;5076944;28;20017;-73
2021/05/19 10:37:31;;;;;;;5.95;4.90;;;18.00;99.90;;;;;;5076694;28;20108;-72
2021/05/19 10:40:13;;;;;;;7.22;5.28;;;18.30;99.90;;;;;;5075447;28;20025;-78
2021/05/19 10:42:42;;;;;;;7.43;5.20;;;18.60;99.90;;;;;;5075640;28;20044;-75
2021/05/19 10:45:13;;;;;;;6.78;4.63;;;19.00;99.90;;;;;;5076994;28;20024;-72
2021/05/19 10:47:40;;;;;;;7.63;5.45;;;19.20;99.90;;;;;;5077421;28;20033;-74
2021/05/19 10:50:16;;;;;;;7.20;5.40;;;19.30;99.90;;;;;;5076571;28;20025;-73
2021/05/19 10:58:53;;;;;;;6.72;5.22;;;18.80;99.90;;;;;;5076519;28;20054;-74
2021/05/19 11:01:42;;;;;;;7.72;6.25;;;18.80;99.90;;;;;;5076695;28;20055;-76
2021/05/19 11:04:22;;;;;;;8.20;5.10;;;18.70;99.90;;;;;;5076088;28;20021;-72
2021/05/19 11:06:57;;;;;;;8.15;5.88;;;18.50;99.90;;;;;;5076881;28;20024;-72
2021/05/19 11:09:35;;;;;;;10.55;5.78;;;18.40;99.90;;;;;;5076869;28;20082;-74
2021/05/19 11:12:36;;;;;;;13.52;8.85;;;18.20;99.90;;;;;;5075046;28;20029;-76
2021/05/19 11:21:24;;;;;;;7.45;6.15;;;18.50;99.90;;;;;;5034258;28;20060;-79
2021/05/19 11:24:01;;;;;;;9.93;6.40;;;18.80;99.90;;;;;;5034301;28;20029;-75
2021/05/19 11:26:27;;;;;;;7.88;6.05;;;18.90;99.90;;;;;;5032763;28;20037;-74
2021/05/19 11:28:59;;;;;;;7.85;5.80;;;19.10;99.90;;;;;;5033470;28;20592;-77
2021/05/19 11:31:39;;;;;;;7.13;5.30;;;19.20;99.90;;;;;;5033972;28;20132;-75
2021/05/19 11:34:05;;;;;;;8.35;5.35;;;19.40;99.90;;;;;;5034127;28;20033;-76
2021/05/19 11:36:41;;;;;;;7.25;5.20;;;19.40;99.90;;;;;;5034321;28;20025;-75
2021/05/19 11:39:27;;;;;;;6.43;5.10;;;19.50;99.90;;;;;;5017028;28;20036;-74
2021/05/19 11:42:09;;;;;;;8.13;5.30;;;19.40;99.40;;;;;;5017305;28;20032;-76
2021/05/19 11:44:40;;;;;;;9.07;5.03;;;19.40;99.90;;;;;;5033651;28;20041;-72
2021/05/19 11:47:08;;;;;;;7.72;5.60;;;19.20;99.90;;;;;;5016836;28;20088;-74
2021/05/19 11:49:34;;;;;;;8.00;5.93;;;19.20;99.90;;;;;;5018882;28;20116;-75
2021/05/19 11:52:00;;;;;;;10.32;5.80;;;19.10;99.90;;;;;;5055592;28;20112;-73
2021/05/19 11:54:26;;;;;;;7.70;5.28;;;18.90;99.90;;;;;;5055414;28;20024;-72
2021/05/19 11:56:55;;;;;;;7.30;4.60;;;18.80;99.90;;;;;;5055382;28;20029;-72
2021/05/19 11:59:28;;;;;;;5.60;4.10;;;18.60;99.90;;;;;;5055100;28;20372;-75
2021/05/19 12:01:57;;;;;;;11.67;4.47;;;18.50;99.90;;;;;;5049141;28;20490;-70
2021/05/19 12:04:24;;;;;;;7.18;4.40;;;18.40;99.90;;;;;;5035537;28;20104;-79
2021/05/19 12:06:50;;;;;;;6.25;4.97;;;18.30;99.90;;;;;;5035437;28;20430;-77
2021/05/19 12:09:18;;;;;;;7.00;4.88;;;18.00;99.90;;;;;;5035055;28;20026;-73
2021/05/19 12:11:45;;;;;;;7.55;5.80;;;17.70;99.90;;;;;;5035033;28;20048;-72
2021/05/19 12:14:11;;;;;;;29.63;10.30;;;17.50;99.90;;;;;;5034976;28;20025;-73
2021/05/19 12:16:40;;;;;;;19.98;7.28;;;17.40;99.90;;;;;;5033900;28;20109;-71
2021/05/19 12:19:25;;;;;;;10.95;5.00;;;17.30;99.90;;;;;;5035126;28;20017;-72
2021/05/19 12:22:14;;;;;;;58.78;28.80;;;17.30;99.90;;;;;;5034861;28;20022;-71
2021/05/19 12:24:41;;;;;;;157.75;72.70;;;17.10;99.90;;;;;;5033731;28;20033;-77
2021/05/19 12:27:08;;;;;;;35.30;16.77;;;17.10;99.90;;;;;;5034777;28;20026;-75
2021/05/19 12:29:42;;;;;;;12.00;8.15;;;17.10;99.90;;;;;;5072359;28;20040;-75
2021/05/19 12:32:18;;;;;;;11.20;7.73;;;17.20;99.90;;;;;;5062752;28;20040;-74
2021/05/19 12:34:46;;;;;;;20.67;11.18;;;17.00;99.90;;;;;;5068939;28;20358;-71
2021/05/19 12:37:13;;;;;;;30.23;15.88;;;16.80;99.90;;;;;;5074226;28;20371;-71
2021/05/19 12:39:44;;;;;;;16.10;10.65;;;16.60;99.90;;;;;;5070947;28;20109;-74
2021/05/19 12:42:16;;;;;;;14.05;9.68;;;16.60;99.90;;;;;;5066443;28;20028;-72
2021/05/19 12:44:43;;;;;;;14.82;8.85;;;16.70;99.90;;;;;;5066221;28;20103;-71
2021/05/19 12:47:11;;;;;;;14.27;8.60;;;16.80;99.90;;;;;;5062521;28;20035;-73
2021/05/19 12:49:43;;;;;;;8.95;5.57;;;16.90;99.90;;;;;;5063083;28;20467;-73
2021/05/19 12:52:19;;;;;;;9.48;5.88;;;16.90;99.90;;;;;;5062300;28;20033;-74
2021/05/19 12:54:53;;;;;;;8.40;5.50;;;17.00;99.90;;;;;;5070022;28;20016;-74
2021/05/19 12:57:28;;;;;;;7.95;5.03;;;17.00;99.90;;;;;;5064278;28;20032;-73
2021/05/19 13:00:06;;;;;;;6.95;5.07;;;16.90;99.90;;;;;;5064124;28;20138;-74
2021/05/19 13:02:38;;;;;;;10.10;6.00;;;17.00;99.90;;;;;;5064067;28;20056;-74
2021/05/19 13:05:06;;;;;;;13.27;9.48;;;16.90;99.90;;;;;;5064013;28;20032;-73
2021/05/19 13:07:32;;;;;;;13.43;7.35;;;16.50;99.90;;;;;;5063836;28;20043;-70